Arctic Fury — WDE9335 — position and weather

sailwx.info

Track history (hours):
 
Tides and Currents Weather Stations Pressure Air Temp Water Temp Dewpoint Dewpoint Depression Visibility Wind Speed Wind Dir Waves Ship Positions

Arctic Fury

Owner: Fury Group Inc, Seattle, WA. More information available from US FCC via Universal Licensing System and Coast Guard Vessel Documentation Center.

Last reported at 2016-May-26 14:31 UTC. Time now 2016-May-26 16:27 UTC.
Position N 44°18' W 124°54'.

Length 43 m; draft 5 m.

Type: Fishing. MMSI: 366468000.

Date/timePositionNaut miles runAvg speedWind from/ knotsBaromVisibWave heightAir tempDewpointWater temp
2016-May-26 14:31N 44°18' W 124°54'3 0.2
2016-May-26 01:28N 44°17' W 124°57'60 3.1
2016-May-25 06:07N 45°16' W 124°40'4 7.7
2016-May-25 05:33N 45°20' W 124°40'8 7.8
2016-May-25 04:33N 45°28' W 124°39'7 7.4
2016-May-25 03:33N 45°35' W 124°38'6 6.4
2016-May-25 02:33N 45°41' W 124°42'1010.0
2016-May-25 01:33N 45°51' W 124°45'1010.4
2016-May-25 00:33N 46°02' W 124°44'1110.6
2016-May-24 23:33N 46°12' W 124°40'10 9.8
2016-May-24 22:33N 46°21' W 124°39'5 4.9
2016-May-24 21:33N 46°26' W 124°35'1 1.1
2016-May-24 20:33N 46°25' W 124°35'4 3.6
2016-May-24 19:33N 46°28' W 124°33'1010.4
2016-May-24 18:33N 46°35' W 124°44'1110.6
2016-May-24 17:33N 46°45' W 124°51'1110.4
2016-May-24 16:31N 46°54' W 124°59'12 1.3
2016-May-24 07:30N 47°06' W 125°02'8 7.3
2016-May-24 06:28N 46°58' W 125°00'7 7.3
2016-May-24 05:33N 46°52' W 124°59'3 3.5
2016-May-24 04:34N 46°49' W 124°57'2 1.8
2016-May-24 03:31N 46°47' W 124°55'3 3.0
2016-May-24 02:33N 46°44' W 124°53'3 3.1
2016-May-24 01:33N 46°41' W 124°53'1 1.0
2016-May-24 00:34N 46°41' W 124°51'3 2.9
2016-May-23 23:33N 46°44' W 124°52'3 3.0
2016-May-23 22:33N 46°47' W 124°54'3 3.0
2016-May-23 21:32N 46°50' W 124°56'5 4.8
2016-May-23 20:31N 46°55' W 124°58'7 7.4
2016-May-23 19:33N 46°48' W 124°55'6 6.2
2016-May-23 18:33N 46°42' W 124°51'3 3.2
2016-May-23 17:33N 46°39' W 124°53'2 2.1
2016-May-23 16:33N 46°41' W 124°51'3 3.2
2016-May-23 15:33N 46°44' W 124°52'3 3.2
2016-May-23 14:33N 46°47' W 124°54'3 3.4
2016-May-23 13:33N 46°50' W 124°56'3 3.4
2016-May-23 12:33N 46°47' W 124°53'2 1.8
2016-May-23 11:33N 46°47' W 124°50'0 0.3
2016-May-23 10:33N 46°47' W 124°50'0 0.3
2016-May-23 09:33N 46°47' W 124°51'1 0.6
2016-May-23 08:33N 46°47' W 124°52'1 0.6
2016-May-23 07:33N 46°47' W 124°52'4 3.7
2016-May-23 06:33N 46°44' W 124°49'3 3.1
2016-May-23 05:33N 46°41' W 124°47'3 3.1
2016-May-23 04:33N 46°38' W 124°45'1 1.0
2016-May-23 03:34N 46°37' W 124°44'3 2.7
2016-May-23 02:33N 46°39' W 124°47'3 3.2
2016-May-23 01:32N 46°41' W 124°50'3 3.1
2016-May-23 00:33N 46°44' W 124°52'3 3.1
2016-May-22 23:33N 46°47' W 124°53'3 3.1
2016-May-22 22:33N 46°50' W 124°55'2 1.8
2016-May-22 21:33N 46°48' W 124°54'7 7.2
2016-May-22 20:33N 46°41' W 124°52'2 2.1
2016-May-22 19:33N 46°43' W 124°51'3 3.1
2016-May-22 18:33N 46°46' W 124°53'3 3.2
2016-May-22 17:33N 46°49' W 124°56'2 1.7
2016-May-22 16:33N 46°50' W 124°57'4 4.0
2016-May-22 15:33N 46°47' W 124°54'3 2.9
2016-May-22 14:33N 46°49' W 124°55'0 0.3
2016-May-22 13:33N 46°50' W 124°55'0 0.2
2016-May-22 12:33N 46°50' W 124°55'4 4.3
2016-May-22 11:33N 46°46' W 124°55'6 5.7
2016-May-22 10:33N 46°40' W 124°57'6 6.1
2016-May-22 09:33N 46°34' W 124°60'6 6.1
2016-May-22 08:33N 46°28' W 125°02'6 5.9
2016-May-22 07:33N 46°23' W 125°04'6 6.0
2016-May-22 06:33N 46°17' W 125°06'6 6.0
2016-May-22 05:29N 46°11' W 125°09'5 5.7
2016-May-22 04:32N 46°05' W 125°11'5 5.3
2016-May-22 03:32N 46°01' W 125°14'24 7.2
2016-May-22 00:12N 45°37' W 125°05'7 9.4
2016-May-21 23:27N 45°33' W 124°58'10 9.6
2016-May-21 22:22N 45°25' W 124°48'7 9.1
2016-May-21 21:33N 45°32' W 124°50'9 9.3
2016-May-21 20:32N 45°29' W 124°37'14 5.7
2016-May-21 18:07N 45°17' W 124°27'  
2016-May-18 19:04N 44°20' W 124°52'1 1.6
2016-May-18 18:18N 44°19' W 124°52'2 2.9
2016-May-18 17:33N 44°18' W 124°55'1 0.9
2016-May-18 16:33N 44°17' W 124°56'1 1.4
2016-May-18 15:33N 44°18' W 124°54'2 2.1
2016-May-18 14:33N 44°19' W 124°52'2 1.9
2016-May-18 13:33N 44°18' W 124°54'0 0.3
2016-May-18 12:33N 44°18' W 124°54'4 3.5
2016-May-18 11:31N 44°20' W 124°58'2 2.4
2016-May-18 10:33N 44°18' W 124°58'3 1.4
2016-May-18 08:28N 44°21' W 124°58'2 2.6
2016-May-18 07:32N 44°18' W 124°57'1 1.3
2016-May-18 06:32N 44°20' W 124°58'3 1.5
2016-May-18 04:33N 44°17' W 124°55'2 2.4
2016-May-18 03:33N 44°19' W 124°53'3 3.1
2016-May-18 02:31N 44°22' W 124°50'4 3.7
2016-May-18 01:33N 44°25' W 124°48'5 5.0
2016-May-18 00:33N 44°30' W 124°47'1310.2
2016-May-17 23:18N 44°43' W 124°44'7 9.1
2016-May-17 22:33N 44°48' W 124°39'9 9.3
2016-May-17 21:33N 44°57' W 124°40'10 9.6
2016-May-17 20:33N 45°07' W 124°41'1010.0
2016-May-17 19:33N 45°17' W 124°38'1010.1
2016-May-17 18:33N 45°27' W 124°35'10 9.9
2016-May-17 17:33N 45°37' W 124°36'9 9.0
2016-May-17 16:33N 45°45' W 124°42'10 9.6
2016-May-17 15:33N 45°54' W 124°44'6 5.9
2016-May-17 14:33N 45°48' W 124°43'2 2.3
2016-May-17 13:33N 45°50' W 124°45'5 4.8
2016-May-17 12:33N 45°55' W 124°46'4 4.1
2016-May-17 11:33N 45°51' W 124°49'3 3.3
2016-May-17 10:33N 45°48' W 124°51'1 1.0
2016-May-17 09:33N 45°49' W 124°50'1 1.3
2016-May-17 08:33N 45°50' W 124°49'1 1.4
2016-May-17 07:33N 45°51' W 124°48'2 1.6
2016-May-17 06:33N 45°53' W 124°47'1 1.2
2016-May-17 05:33N 45°54' W 124°46'1 1.2
2016-May-17 04:33N 45°55' W 124°46'2 2.2
2016-May-17 03:33N 45°57' W 124°45'1 0.6
2016-May-17 02:33N 45°57' W 124°44'4 3.8
2016-May-17 01:33N 45°54' W 124°44'2 2.3
2016-May-17 00:33N 45°51' W 124°44'1010.2
2016-May-16 23:33N 46°01' W 124°44'1010.2
2016-May-16 22:33N 46°12' W 124°41'1110.6
2016-May-16 21:34N 46°22' W 124°38'1010.2
2016-May-16 20:33N 46°32' W 124°41'1010.1
2016-May-16 19:33N 46°40' W 124°50'1010.3
2016-May-16 18:33N 46°49' W 124°56'1010.2
2016-May-16 17:33N 46°59' W 124°60'1210.2
2016-May-16 16:23N 47°11' W 124°58'  
Track history (hours):
 
Tides and Currents Weather Stations Pressure Air Temp Water Temp Dewpoint Dewpoint Depression Visibility Wind Speed Wind Dir Waves Ship Positions

Arctic Fury

Owner: Fury Group Inc, Seattle, WA. More information available from US FCC via Universal Licensing System and Coast Guard Vessel Documentation Center.

Last reported at 2016-May-26 14:31 UTC. Time now 2016-May-26 16:27 UTC.
Position N 44°18' W 124°54'.

Length 43 m; draft 5 m.

Type: Fishing. MMSI: 366468000.

Date/timePositionNaut miles runAvg speedWind from/ knotsBaromVisibWave heightAir tempDewpointWater temp
2016-May-26 14:31N 44°18' W 124°54'3 0.2
2016-May-26 01:28N 44°17' W 124°57'60 3.1
2016-May-25 06:07N 45°16' W 124°40'4 7.7
2016-May-25 05:33N 45°20' W 124°40'8 7.8
2016-May-25 04:33N 45°28' W 124°39'7 7.4
2016-May-25 03:33N 45°35' W 124°38'6 6.4
2016-May-25 02:33N 45°41' W 124°42'1010.0
2016-May-25 01:33N 45°51' W 124°45'1010.4
2016-May-25 00:33N 46°02' W 124°44'1110.6
2016-May-24 23:33N 46°12' W 124°40'10 9.8
2016-May-24 22:33N 46°21' W 124°39'5 4.9
2016-May-24 21:33N 46°26' W 124°35'1 1.1
2016-May-24 20:33N 46°25' W 124°35'4 3.6
2016-May-24 19:33N 46°28' W 124°33'1010.4
2016-May-24 18:33N 46°35' W 124°44'1110.6
2016-May-24 17:33N 46°45' W 124°51'1110.4
2016-May-24 16:31N 46°54' W 124°59'12 1.3
2016-May-24 07:30N 47°06' W 125°02'8 7.3
2016-May-24 06:28N 46°58' W 125°00'7 7.3
2016-May-24 05:33N 46°52' W 124°59'3 3.5
2016-May-24 04:34N 46°49' W 124°57'2 1.8
2016-May-24 03:31N 46°47' W 124°55'3 3.0
2016-May-24 02:33N 46°44' W 124°53'3 3.1
2016-May-24 01:33N 46°41' W 124°53'1 1.0
2016-May-24 00:34N 46°41' W 124°51'3 2.9
2016-May-23 23:33N 46°44' W 124°52'3 3.0
2016-May-23 22:33N 46°47' W 124°54'3 3.0
2016-May-23 21:32N 46°50' W 124°56'5 4.8
2016-May-23 20:31N 46°55' W 124°58'7 7.4
2016-May-23 19:33N 46°48' W 124°55'6 6.2
2016-May-23 18:33N 46°42' W 124°51'3 3.2
2016-May-23 17:33N 46°39' W 124°53'2 2.1
2016-May-23 16:33N 46°41' W 124°51'3 3.2
2016-May-23 15:33N 46°44' W 124°52'3 3.2
2016-May-23 14:33N 46°47' W 124°54'3 3.4
2016-May-23 13:33N 46°50' W 124°56'3 3.4
2016-May-23 12:33N 46°47' W 124°53'2 1.8
2016-May-23 11:33N 46°47' W 124°50'0 0.3
2016-May-23 10:33N 46°47' W 124°50'0 0.3
2016-May-23 09:33N 46°47' W 124°51'1 0.6
2016-May-23 08:33N 46°47' W 124°52'1 0.6
2016-May-23 07:33N 46°47' W 124°52'4 3.7
2016-May-23 06:33N 46°44' W 124°49'3 3.1
2016-May-23 05:33N 46°41' W 124°47'3 3.1
2016-May-23 04:33N 46°38' W 124°45'1 1.0
2016-May-23 03:34N 46°37' W 124°44'3 2.7
2016-May-23 02:33N 46°39' W 124°47'3 3.2
2016-May-23 01:32N 46°41' W 124°50'3 3.1
2016-May-23 00:33N 46°44' W 124°52'3 3.1
2016-May-22 23:33N 46°47' W 124°53'3 3.1
2016-May-22 22:33N 46°50' W 124°55'2 1.8
2016-May-22 21:33N 46°48' W 124°54'7 7.2
2016-May-22 20:33N 46°41' W 124°52'2 2.1
2016-May-22 19:33N 46°43' W 124°51'3 3.1
2016-May-22 18:33N 46°46' W 124°53'3 3.2
2016-May-22 17:33N 46°49' W 124°56'2 1.7
2016-May-22 16:33N 46°50' W 124°57'4 4.0
2016-May-22 15:33N 46°47' W 124°54'3 2.9
2016-May-22 14:33N 46°49' W 124°55'0 0.3
2016-May-22 13:33N 46°50' W 124°55'0 0.2
2016-May-22 12:33N 46°50' W 124°55'4 4.3
2016-May-22 11:33N 46°46' W 124°55'6 5.7
2016-May-22 10:33N 46°40' W 124°57'6 6.1
2016-May-22 09:33N 46°34' W 124°60'6 6.1
2016-May-22 08:33N 46°28' W 125°02'6 5.9
2016-May-22 07:33N 46°23' W 125°04'6 6.0
2016-May-22 06:33N 46°17' W 125°06'6 6.0
2016-May-22 05:29N 46°11' W 125°09'5 5.7
2016-May-22 04:32N 46°05' W 125°11'5 5.3
2016-May-22 03:32N 46°01' W 125°14'24 7.2
2016-May-22 00:12N 45°37' W 125°05'7 9.4
2016-May-21 23:27N 45°33' W 124°58'10 9.6
2016-May-21 22:22N 45°25' W 124°48'7 9.1
2016-May-21 21:33N 45°32' W 124°50'9 9.3
2016-May-21 20:32N 45°29' W 124°37'14 5.7
2016-May-21 18:07N 45°17' W 124°27'  
2016-May-18 19:04N 44°20' W 124°52'1 1.6
2016-May-18 18:18N 44°19' W 124°52'2 2.9
2016-May-18 17:33N 44°18' W 124°55'1 0.9
2016-May-18 16:33N 44°17' W 124°56'1 1.4
2016-May-18 15:33N 44°18' W 124°54'2 2.1
2016-May-18 14:33N 44°19' W 124°52'2 1.9
2016-May-18 13:33N 44°18' W 124°54'0 0.3
2016-May-18 12:33N 44°18' W 124°54'4 3.5
2016-May-18 11:31N 44°20' W 124°58'2 2.4
2016-May-18 10:33N 44°18' W 124°58'3 1.4
2016-May-18 08:28N 44°21' W 124°58'2 2.6
2016-May-18 07:32N 44°18' W 124°57'1 1.3
2016-May-18 06:32N 44°20' W 124°58'3 1.5
2016-May-18 04:33N 44°17' W 124°55'2 2.4
2016-May-18 03:33N 44°19' W 124°53'3 3.1
2016-May-18 02:31N 44°22' W 124°50'4 3.7
2016-May-18 01:33N 44°25' W 124°48'5 5.0
2016-May-18 00:33N 44°30' W 124°47'1310.2
2016-May-17 23:18N 44°43' W 124°44'7 9.1
2016-May-17 22:33N 44°48' W 124°39'9 9.3
2016-May-17 21:33N 44°57' W 124°40'10 9.6
2016-May-17 20:33N 45°07' W 124°41'1010.0
2016-May-17 19:33N 45°17' W 124°38'1010.1
2016-May-17 18:33N 45°27' W 124°35'10 9.9
2016-May-17 17:33N 45°37' W 124°36'9 9.0
2016-May-17 16:33N 45°45' W 124°42'10 9.6
2016-May-17 15:33N 45°54' W 124°44'6 5.9
2016-May-17 14:33N 45°48' W 124°43'2 2.3
2016-May-17 13:33N 45°50' W 124°45'5 4.8
2016-May-17 12:33N 45°55' W 124°46'4 4.1
2016-May-17 11:33N 45°51' W 124°49'3 3.3
2016-May-17 10:33N 45°48' W 124°51'1 1.0
2016-May-17 09:33N 45°49' W 124°50'1 1.3
2016-May-17 08:33N 45°50' W 124°49'1 1.4
2016-May-17 07:33N 45°51' W 124°48'2 1.6
2016-May-17 06:33N 45°53' W 124°47'1 1.2
2016-May-17 05:33N 45°54' W 124°46'1 1.2
2016-May-17 04:33N 45°55' W 124°46'2 2.2
2016-May-17 03:33N 45°57' W 124°45'1 0.6
2016-May-17 02:33N 45°57' W 124°44'4 3.8
2016-May-17 01:33N 45°54' W 124°44'2 2.3
2016-May-17 00:33N 45°51' W 124°44'1010.2
2016-May-16 23:33N 46°01' W 124°44'1010.2
2016-May-16 22:33N 46°12' W 124°41'1110.6
2016-May-16 21:34N 46°22' W 124°38'1010.2
2016-May-16 20:33N 46°32' W 124°41'1010.1
2016-May-16 19:33N 46°40' W 124°50'1010.3
2016-May-16 18:33N 46°49' W 124°56'1010.2
2016-May-16 17:33N 46°59' W 124°60'1210.2
2016-May-16 16:23N 47°11' W 124°58'  

Dump ship's entire track history